Terminal Aerodrome Forecast
Issued by NWS

Home | Current Version | Previous Version | Text Only | Print | Product List | Glossary Off
Versions: 1 2 3 4 5 6 7 8 9 10 11 12 13 14 15 16 17 18 19 20 21 22 23 24 25 26 27 28 29 30 31 32 33 34 35 36 37

000
FTUS43 KGRB 261838 AAA
TAFRHI
TAF AMD
KRHI 261838Z 2619/2718 36007KT P6SM -RA BKN009 OVC013
     FM262000 31005KT P6SM VCSH OVC005
     FM270300 36007KT P6SM VCSH OVC003
     FM270700 34008KT 3SM -SHRA BR OVC003
     FM271700 30008KT 5SM -SHRA OVC010=

USA.gov is the U.S. government's official web portal to all federal, state and local government web resources and services.